sensor_id;sensor_type;location;lat;lon;timestamp;P1;durP1;ratioP1;P2;durP2;ratioP2
43435;SDS011;36399;51.444;-2.018;2022-08-19T00:01:32;2.08;;;0.95;;
43435;SDS011;36399;51.444;-2.018;2022-08-19T00:04:01;1.92;;;0.80;;
43435;SDS011;36399;51.444;-2.018;2022-08-19T00:06:30;2.95;;;0.90;;
43435;SDS011;36399;51.444;-2.018;2022-08-19T00:08:57;1.98;;;0.60;;
43435;SDS011;36399;51.444;-2.018;2022-08-19T00:11:26;2.55;;;0.80;;
43435;SDS011;36399;51.444;-2.018;2022-08-19T00:13:54;1.92;;;0.50;;
43435;SDS011;36399;51.444;-2.018;2022-08-19T00:16:21;2.80;;;0.50;;
43435;SDS011;36399;51.444;-2.018;2022-08-19T00:18:49;4.60;;;0.57;;
43435;SDS011;36399;51.444;-2.018;2022-08-19T00:21:15;1.85;;;0.77;;
43435;SDS011;36399;51.444;-2.018;2022-08-19T00:23:42;1.33;;;0.52;;
43435;SDS011;36399;51.444;-2.018;2022-08-19T00:26:08;1.05;;;0.40;;
43435;SDS011;36399;51.444;-2.018;2022-08-19T00:28:36;2.22;;;0.60;;
43435;SDS011;36399;51.444;-2.018;2022-08-19T00:31:03;0.95;;;0.32;;
43435;SDS011;36399;51.444;-2.018;2022-08-19T00:33:30;2.05;;;0.43;;
43435;SDS011;36399;51.444;-2.018;2022-08-19T00:36:00;2.45;;;0.50;;
43435;SDS011;36399;51.444;-2.018;2022-08-19T00:38:30;1.13;;;0.40;;
43435;SDS011;36399;51.444;-2.018;2022-08-19T00:40:56;1.35;;;0.50;;
43435;SDS011;36399;51.444;-2.018;2022-08-19T00:43:23;3.00;;;0.52;;
43435;SDS011;36399;51.444;-2.018;2022-08-19T00:45:51;1.67;;;0.57;;
43435;SDS011;36399;51.444;-2.018;2022-08-19T00:48:19;1.42;;;0.60;;
43435;SDS011;36399;51.444;-2.018;2022-08-19T00:50:46;1.98;;;0.50;;
43435;SDS011;36399;51.444;-2.018;2022-08-19T00:53:15;1.25;;;0.32;;
43435;SDS011;36399;51.444;-2.018;2022-08-19T00:55:45;1.90;;;0.50;;
43435;SDS011;36399;51.444;-2.018;2022-08-19T00:58:14;2.40;;;0.40;;
43435;SDS011;36399;51.444;-2.018;2022-08-19T01:00:45;0.93;;;0.20;;
43435;SDS011;36399;51.444;-2.018;2022-08-19T01:03:14;0.98;;;0.10;;
43435;SDS011;36399;51.444;-2.018;2022-08-19T01:05:42;0.40;;;0.30;;
43435;SDS011;36399;51.444;-2.018;2022-08-19T01:08:10;0.45;;;0.20;;
43435;SDS011;36399;51.444;-2.018;2022-08-19T01:10:41;0.98;;;0.25;;
43435;SDS011;36399;51.444;-2.018;2022-08-19T01:13:10;1.13;;;0.40;;
43435;SDS011;36399;51.444;-2.018;2022-08-19T01:15:43;1.80;;;0.45;;
43435;SDS011;36399;51.444;-2.018;2022-08-19T01:18:12;1.98;;;0.63;;
43435;SDS011;36399;51.444;-2.018;2022-08-19T01:20:41;1.33;;;0.60;;
43435;SDS011;36399;51.444;-2.018;2022-08-19T01:23:09;0.80;;;0.30;;
43435;SDS011;36399;51.444;-2.018;2022-08-19T01:25:50;1.10;;;0.30;;
43435;SDS011;36399;51.444;-2.018;2022-08-19T01:28:36;0.40;;;0.20;;
43435;SDS011;36399;51.444;-2.018;2022-08-19T01:31:02;0.83;;;0.30;;
43435;SDS011;36399;51.444;-2.018;2022-08-19T01:33:28;0.45;;;0.32;;
43435;SDS011;36399;51.444;-2.018;2022-08-19T01:36:06;1.33;;;0.50;;
43435;SDS011;36399;51.444;-2.018;2022-08-19T01:38:37;0.82;;;0.30;;
43435;SDS011;36399;51.444;-2.018;2022-08-19T01:41:05;0.87;;;0.20;;
43435;SDS011;36399;51.444;-2.018;2022-08-19T01:43:31;1.27;;;0.50;;
43435;SDS011;36399;51.444;-2.018;2022-08-19T01:45:58;1.33;;;0.33;;
43435;SDS011;36399;51.444;-2.018;2022-08-19T01:48:24;0.40;;;0.20;;
43435;SDS011;36399;51.444;-2.018;2022-08-19T01:50:51;0.65;;;0.20;;
43435;SDS011;36399;51.444;-2.018;2022-08-19T01:53:16;1.67;;;0.30;;
43435;SDS011;36399;51.444;-2.018;2022-08-19T01:55:43;1.20;;;0.20;;
43435;SDS011;36399;51.444;-2.018;2022-08-19T01:58:11;1.03;;;0.40;;
43435;SDS011;36399;51.444;-2.018;2022-08-19T02:00:40;1.50;;;0.87;;
43435;SDS011;36399;51.444;-2.018;2022-08-19T02:03:07;0.77;;;0.37;;
43435;SDS011;36399;51.444;-2.018;2022-08-19T02:05:34;0.67;;;0.30;;
43435;SDS011;36399;51.444;-2.018;2022-08-19T02:08:00;2.00;;;1.08;;
43435;SDS011;36399;51.444;-2.018;2022-08-19T02:10:26;1.38;;;0.35;;
43435;SDS011;36399;51.444;-2.018;2022-08-19T02:12:52;1.53;;;0.43;;
43435;SDS011;36399;51.444;-2.018;2022-08-19T02:15:19;2.67;;;0.70;;
43435;SDS011;36399;51.444;-2.018;2022-08-19T02:17:46;1.60;;;0.40;;
43435;SDS011;36399;51.444;-2.018;2022-08-19T02:20:12;3.43;;;0.37;;
43435;SDS011;36399;51.444;-2.018;2022-08-19T02:22:40;1.40;;;0.30;;
43435;SDS011;36399;51.444;-2.018;2022-08-19T02:25:09;0.80;;;0.30;;
43435;SDS011;36399;51.444;-2.018;2022-08-19T02:27:36;3.30;;;0.40;;
43435;SDS011;36399;51.444;-2.018;2022-08-19T02:30:03;1.53;;;0.40;;
43435;SDS011;36399;51.444;-2.018;2022-08-19T02:32:32;1.57;;;0.60;;
43435;SDS011;36399;51.444;-2.018;2022-08-19T02:34:58;2.47;;;1.03;;
43435;SDS011;36399;51.444;-2.018;2022-08-19T02:37:24;1.80;;;1.00;;
43435;SDS011;36399;51.444;-2.018;2022-08-19T02:40:09;1.30;;;0.40;;
43435;SDS011;36399;51.444;-2.018;2022-08-19T02:42:35;3.03;;;0.80;;
43435;SDS011;36399;51.444;-2.018;2022-08-19T02:45:01;3.10;;;0.53;;
43435;SDS011;36399;51.444;-2.018;2022-08-19T02:47:27;4.10;;;0.70;;
43435;SDS011;36399;51.444;-2.018;2022-08-19T02:49:53;4.23;;;1.20;;
43435;SDS011;36399;51.444;-2.018;2022-08-19T02:52:19;2.77;;;0.73;;
43435;SDS011;36399;51.444;-2.018;2022-08-19T02:54:45;1.83;;;0.70;;
43435;SDS011;36399;51.444;-2.018;2022-08-19T02:57:11;3.53;;;1.00;;
43435;SDS011;36399;51.444;-2.018;2022-08-19T02:59:37;4.43;;;0.77;;
43435;SDS011;36399;51.444;-2.018;2022-08-19T03:02:03;2.70;;;0.70;;
43435;SDS011;36399;51.444;-2.018;2022-08-19T03:04:29;2.47;;;0.80;;
43435;SDS011;36399;51.444;-2.018;2022-08-19T03:06:55;3.80;;;1.10;;
43435;SDS011;36399;51.444;-2.018;2022-08-19T03:09:21;2.20;;;1.37;;
43435;SDS011;36399;51.444;-2.018;2022-08-19T03:11:47;2.83;;;0.70;;
43435;SDS011;36399;51.444;-2.018;2022-08-19T03:14:13;4.27;;;1.03;;
43435;SDS011;36399;51.444;-2.018;2022-08-19T03:16:44;1.97;;;1.07;;
43435;SDS011;36399;51.444;-2.018;2022-08-19T03:19:11;3.93;;;1.07;;
43435;SDS011;36399;51.444;-2.018;2022-08-19T03:21:38;2.13;;;0.97;;
43435;SDS011;36399;51.444;-2.018;2022-08-19T03:24:06;5.63;;;1.10;;
43435;SDS011;36399;51.444;-2.018;2022-08-19T03:26:34;3.13;;;0.97;;
43435;SDS011;36399;51.444;-2.018;2022-08-19T03:29:04;6.83;;;1.30;;
43435;SDS011;36399;51.444;-2.018;2022-08-19T03:31:30;3.13;;;1.87;;
43435;SDS011;36399;51.444;-2.018;2022-08-19T03:33:57;6.47;;;1.33;;
43435;SDS011;36399;51.444;-2.018;2022-08-19T03:36:24;4.03;;;1.10;;
43435;SDS011;36399;51.444;-2.018;2022-08-19T03:38:53;4.93;;;1.20;;
43435;SDS011;36399;51.444;-2.018;2022-08-19T03:41:22;4.97;;;1.40;;
43435;SDS011;36399;51.444;-2.018;2022-08-19T03:43:51;5.27;;;1.23;;
43435;SDS011;36399;51.444;-2.018;2022-08-19T03:46:20;4.83;;;1.33;;
43435;SDS011;36399;51.444;-2.018;2022-08-19T03:48:50;3.80;;;1.07;;
43435;SDS011;36399;51.444;-2.018;2022-08-19T03:53:47;2.10;;;1.10;;
43435;SDS011;36399;51.444;-2.018;2022-08-19T03:56:14;5.13;;;1.27;;
43435;SDS011;36399;51.444;-2.018;2022-08-19T03:58:40;5.63;;;1.10;;
43435;SDS011;36399;51.444;-2.018;2022-08-19T04:01:07;4.07;;;1.20;;
43435;SDS011;36399;51.444;-2.018;2022-08-19T04:03:38;6.43;;;1.87;;
43435;SDS011;36399;51.444;-2.018;2022-08-19T04:06:12;4.97;;;2.00;;
43435;SDS011;36399;51.444;-2.018;2022-08-19T04:08:40;3.23;;;1.40;;
43435;SDS011;36399;51.444;-2.018;2022-08-19T04:11:08;8.67;;;1.80;;
43435;SDS011;36399;51.444;-2.018;2022-08-19T04:13:35;3.23;;;1.27;;
43435;SDS011;36399;51.444;-2.018;2022-08-19T04:16:01;6.00;;;1.80;;
43435;SDS011;36399;51.444;-2.018;2022-08-19T04:18:28;6.23;;;1.70;;
43435;SDS011;36399;51.444;-2.018;2022-08-19T04:20:55;12.57;;;2.17;;
43435;SDS011;36399;51.444;-2.018;2022-08-19T04:23:22;2.77;;;1.30;;
43435;SDS011;36399;51.444;-2.018;2022-08-19T04:25:49;5.10;;;1.53;;
43435;SDS011;36399;51.444;-2.018;2022-08-19T04:28:15;5.33;;;1.40;;
43435;SDS011;36399;51.444;-2.018;2022-08-19T04:30:47;8.93;;;3.43;;
43435;SDS011;36399;51.444;-2.018;2022-08-19T04:33:15;3.97;;;1.53;;
43435;SDS011;36399;51.444;-2.018;2022-08-19T04:35:46;4.47;;;2.23;;
43435;SDS011;36399;51.444;-2.018;2022-08-19T04:38:14;5.87;;;1.70;;
43435;SDS011;36399;51.444;-2.018;2022-08-19T04:40:43;7.93;;;2.57;;
43435;SDS011;36399;51.444;-2.018;2022-08-19T04:43:29;4.73;;;2.30;;
43435;SDS011;36399;51.444;-2.018;2022-08-19T04:45:55;6.70;;;1.90;;
43435;SDS011;36399;51.444;-2.018;2022-08-19T04:48:22;7.83;;;2.00;;
43435;SDS011;36399;51.444;-2.018;2022-08-19T04:50:52;4.20;;;1.57;;
43435;SDS011;36399;51.444;-2.018;2022-08-19T04:53:25;7.13;;;1.70;;
43435;SDS011;36399;51.444;-2.018;2022-08-19T04:55:56;7.60;;;1.77;;
43435;SDS011;36399;51.444;-2.018;2022-08-19T04:58:29;9.23;;;1.80;;
43435;SDS011;36399;51.444;-2.018;2022-08-19T05:00:55;7.20;;;1.97;;
43435;SDS011;36399;51.444;-2.018;2022-08-19T05:03:21;4.17;;;1.67;;
43435;SDS011;36399;51.444;-2.018;2022-08-19T05:05:48;5.83;;;2.03;;
43435;SDS011;36399;51.444;-2.018;2022-08-19T05:08:15;10.70;;;2.20;;
43435;SDS011;36399;51.444;-2.018;2022-08-19T05:10:49;8.30;;;2.00;;
43435;SDS011;36399;51.444;-2.018;2022-08-19T05:13:17;8.63;;;2.93;;
43435;SDS011;36399;51.444;-2.018;2022-08-19T05:15:45;7.43;;;2.20;;
43435;SDS011;36399;51.444;-2.018;2022-08-19T05:18:20;9.30;;;2.97;;
43435;SDS011;36399;51.444;-2.018;2022-08-19T05:21:08;6.87;;;2.17;;
43435;SDS011;36399;51.444;-2.018;2022-08-19T05:23:53;10.00;;;2.77;;
43435;SDS011;36399;51.444;-2.018;2022-08-19T05:26:19;7.70;;;2.70;;
43435;SDS011;36399;51.444;-2.018;2022-08-19T05:28:45;9.87;;;2.13;;
43435;SDS011;36399;51.444;-2.018;2022-08-19T05:31:11;7.47;;;2.00;;
43435;SDS011;36399;51.444;-2.018;2022-08-19T05:33:38;11.90;;;2.47;;
43435;SDS011;36399;51.444;-2.018;2022-08-19T05:36:05;8.83;;;2.13;;
43435;SDS011;36399;51.444;-2.018;2022-08-19T05:38:33;7.33;;;2.17;;
43435;SDS011;36399;51.444;-2.018;2022-08-19T05:41:06;5.90;;;2.10;;
43435;SDS011;36399;51.444;-2.018;2022-08-19T05:43:36;6.70;;;2.13;;
43435;SDS011;36399;51.444;-2.018;2022-08-19T05:46:03;8.60;;;4.03;;
43435;SDS011;36399;51.444;-2.018;2022-08-19T05:48:31;10.83;;;2.23;;
43435;SDS011;36399;51.444;-2.018;2022-08-19T05:51:02;6.00;;;2.77;;
43435;SDS011;36399;51.444;-2.018;2022-08-19T05:53:30;8.38;;;2.40;;
43435;SDS011;36399;51.444;-2.018;2022-08-19T05:55:56;8.20;;;3.40;;
43435;SDS011;36399;51.444;-2.018;2022-08-19T05:58:22;7.40;;;2.37;;
43435;SDS011;36399;51.444;-2.018;2022-08-19T06:00:49;11.17;;;2.93;;
43435;SDS011;36399;51.444;-2.018;2022-08-19T06:03:15;8.97;;;2.47;;
43435;SDS011;36399;51.444;-2.018;2022-08-19T06:05:41;9.23;;;3.13;;
43435;SDS011;36399;51.444;-2.018;2022-08-19T06:08:07;13.93;;;3.10;;
43435;SDS011;36399;51.444;-2.018;2022-08-19T06:10:33;11.70;;;2.50;;
43435;SDS011;36399;51.444;-2.018;2022-08-19T06:12:59;12.30;;;3.07;;
43435;SDS011;36399;51.444;-2.018;2022-08-19T06:15:25;11.77;;;2.70;;
43435;SDS011;36399;51.444;-2.018;2022-08-19T06:17:52;13.30;;;2.27;;
43435;SDS011;36399;51.444;-2.018;2022-08-19T06:20:19;11.43;;;2.60;;
43435;SDS011;36399;51.444;-2.018;2022-08-19T06:22:49;7.93;;;2.93;;
43435;SDS011;36399;51.444;-2.018;2022-08-19T06:25:17;8.90;;;2.40;;
43435;SDS011;36399;51.444;-2.018;2022-08-19T06:27:43;9.03;;;2.63;;
43435;SDS011;36399;51.444;-2.018;2022-08-19T06:30:10;10.87;;;2.87;;
43435;SDS011;36399;51.444;-2.018;2022-08-19T06:32:37;13.80;;;4.23;;
43435;SDS011;36399;51.444;-2.018;2022-08-19T06:35:03;8.23;;;3.53;;
43435;SDS011;36399;51.444;-2.018;2022-08-19T06:37:30;8.23;;;3.90;;
43435;SDS011;36399;51.444;-2.018;2022-08-19T06:39:56;12.10;;;3.93;;
43435;SDS011;36399;51.444;-2.018;2022-08-19T06:42:22;7.73;;;3.30;;
43435;SDS011;36399;51.444;-2.018;2022-08-19T06:44:48;10.93;;;3.07;;
43435;SDS011;36399;51.444;-2.018;2022-08-19T06:47:16;10.53;;;3.90;;
43435;SDS011;36399;51.444;-2.018;2022-08-19T06:49:45;9.77;;;3.20;;
43435;SDS011;36399;51.444;-2.018;2022-08-19T06:52:11;9.97;;;3.07;;
43435;SDS011;36399;51.444;-2.018;2022-08-19T06:54:38;11.70;;;3.10;;
43435;SDS011;36399;51.444;-2.018;2022-08-19T06:57:05;9.77;;;3.40;;
43435;SDS011;36399;51.444;-2.018;2022-08-19T06:59:32;8.67;;;2.90;;
43435;SDS011;36399;51.444;-2.018;2022-08-19T07:02:00;6.90;;;2.70;;
43435;SDS011;36399;51.444;-2.018;2022-08-19T07:04:30;9.20;;;3.03;;
43435;SDS011;36399;51.444;-2.018;2022-08-19T07:07:02;7.47;;;2.57;;
43435;SDS011;36399;51.444;-2.018;2022-08-19T07:09:34;8.43;;;2.87;;
43435;SDS011;36399;51.444;-2.018;2022-08-19T07:12:03;4.93;;;2.53;;
43435;SDS011;36399;51.444;-2.018;2022-08-19T07:14:32;7.57;;;2.30;;
43435;SDS011;36399;51.444;-2.018;2022-08-19T07:17:03;7.43;;;2.17;;
43435;SDS011;36399;51.444;-2.018;2022-08-19T07:19:33;5.97;;;2.23;;
43435;SDS011;36399;51.444;-2.018;2022-08-19T07:22:01;11.17;;;2.57;;
43435;SDS011;36399;51.444;-2.018;2022-08-19T07:24:28;6.10;;;2.33;;
43435;SDS011;36399;51.444;-2.018;2022-08-19T07:26:55;9.47;;;2.60;;
43435;SDS011;36399;51.444;-2.018;2022-08-19T07:29:27;8.95;;;2.40;;
43435;SDS011;36399;51.444;-2.018;2022-08-19T07:31:55;6.60;;;2.13;;
43435;SDS011;36399;51.444;-2.018;2022-08-19T07:34:22;9.70;;;2.30;;
43435;SDS011;36399;51.444;-2.018;2022-08-19T07:36:49;7.23;;;2.50;;
43435;SDS011;36399;51.444;-2.018;2022-08-19T07:39:23;3.47;;;1.40;;
43435;SDS011;36399;51.444;-2.018;2022-08-19T07:41:54;9.67;;;2.23;;
43435;SDS011;36399;51.444;-2.018;2022-08-19T07:44:22;8.13;;;2.60;;
43435;SDS011;36399;51.444;-2.018;2022-08-19T07:46:50;12.10;;;2.30;;
43435;SDS011;36399;51.444;-2.018;2022-08-19T07:49:19;11.37;;;2.67;;
43435;SDS011;36399;51.444;-2.018;2022-08-19T07:51:50;5.03;;;1.57;;
43435;SDS011;36399;51.444;-2.018;2022-08-19T07:54:27;6.30;;;1.83;;
43435;SDS011;36399;51.444;-2.018;2022-08-19T07:56:54;4.20;;;1.37;;
43435;SDS011;36399;51.444;-2.018;2022-08-19T07:59:21;4.47;;;1.30;;
43435;SDS011;36399;51.444;-2.018;2022-08-19T08:01:49;11.37;;;1.70;;
43435;SDS011;36399;51.444;-2.018;2022-08-19T08:04:17;11.27;;;1.57;;
43435;SDS011;36399;51.444;-2.018;2022-08-19T08:07:02;5.67;;;1.80;;
43435;SDS011;36399;51.444;-2.018;2022-08-19T08:09:47;5.90;;;1.63;;
43435;SDS011;36399;51.444;-2.018;2022-08-19T08:12:24;7.17;;;1.97;;
43435;SDS011;36399;51.444;-2.018;2022-08-19T08:14:54;5.87;;;1.63;;
43435;SDS011;36399;51.444;-2.018;2022-08-19T08:17:23;6.85;;;1.73;;
43435;SDS011;36399;51.444;-2.018;2022-08-19T08:19:51;7.17;;;1.40;;
43435;SDS011;36399;51.444;-2.018;2022-08-19T08:22:19;6.97;;;1.20;;
43435;SDS011;36399;51.444;-2.018;2022-08-19T08:25:15;7.35;;;1.80;;
43435;SDS011;36399;51.444;-2.018;2022-08-19T08:27:44;5.50;;;1.60;;
43435;SDS011;36399;51.444;-2.018;2022-08-19T08:30:21;7.13;;;1.40;;
43435;SDS011;36399;51.444;-2.018;2022-08-19T08:32:49;5.90;;;1.73;;
43435;SDS011;36399;51.444;-2.018;2022-08-19T08:35:17;5.97;;;2.07;;
43435;SDS011;36399;51.444;-2.018;2022-08-19T08:37:45;5.30;;;2.03;;
43435;SDS011;36399;51.444;-2.018;2022-08-19T08:42:44;8.63;;;1.40;;
43435;SDS011;36399;51.444;-2.018;2022-08-19T08:45:28;6.70;;;1.20;;
43435;SDS011;36399;51.444;-2.018;2022-08-19T08:47:56;5.85;;;1.70;;
43435;SDS011;36399;51.444;-2.018;2022-08-19T08:50:32;5.63;;;1.77;;
43435;SDS011;36399;51.444;-2.018;2022-08-19T08:53:03;7.63;;;1.60;;
43435;SDS011;36399;51.444;-2.018;2022-08-19T08:55:32;8.18;;;1.40;;
43435;SDS011;36399;51.444;-2.018;2022-08-19T08:58:03;8.63;;;1.65;;
43435;SDS011;36399;51.444;-2.018;2022-08-19T09:03:00;5.10;;;1.90;;
43435;SDS011;36399;51.444;-2.018;2022-08-19T09:05:33;5.90;;;1.40;;
43435;SDS011;36399;51.444;-2.018;2022-08-19T09:08:17;4.57;;;1.23;;
43435;SDS011;36399;51.444;-2.018;2022-08-19T09:10:54;3.95;;;1.52;;
43435;SDS011;36399;51.444;-2.018;2022-08-19T09:13:25;4.30;;;1.10;;
43435;SDS011;36399;51.444;-2.018;2022-08-19T09:16:00;6.45;;;1.70;;
43435;SDS011;36399;51.444;-2.018;2022-08-19T09:19:06;4.78;;;0.93;;
43435;SDS011;36399;51.444;-2.018;2022-08-19T09:21:26;4.60;;;1.23;;
43435;SDS011;36399;51.444;-2.018;2022-08-19T09:23:53;7.05;;;1.60;;
43435;SDS011;36399;51.444;-2.018;2022-08-19T09:26:21;6.55;;;1.15;;
43435;SDS011;36399;51.444;-2.018;2022-08-19T09:28:50;5.88;;;2.05;;
43435;SDS011;36399;51.444;-2.018;2022-08-19T09:31:22;4.30;;;1.08;;
43435;SDS011;36399;51.444;-2.018;2022-08-19T09:33:49;7.53;;;1.30;;
43435;SDS011;36399;51.444;-2.018;2022-08-19T09:36:17;6.88;;;1.25;;
43435;SDS011;36399;51.444;-2.018;2022-08-19T09:38:45;5.47;;;1.88;;
43435;SDS011;36399;51.444;-2.018;2022-08-19T09:41:12;3.95;;;1.00;;
43435;SDS011;36399;51.444;-2.018;2022-08-19T09:43:47;8.20;;;1.67;;
43435;SDS011;36399;51.444;-2.018;2022-08-19T09:46:18;4.93;;;1.23;;
43435;SDS011;36399;51.444;-2.018;2022-08-19T09:48:46;6.50;;;1.20;;
43435;SDS011;36399;51.444;-2.018;2022-08-19T09:51:15;5.05;;;0.93;;
43435;SDS011;36399;51.444;-2.018;2022-08-19T09:53:53;3.95;;;1.23;;
43435;SDS011;36399;51.444;-2.018;2022-08-19T09:56:20;6.75;;;1.50;;
43435;SDS011;36399;51.444;-2.018;2022-08-19T09:58:47;3.00;;;0.82;;
43435;SDS011;36399;51.444;-2.018;2022-08-19T10:01:18;5.47;;;1.08;;
43435;SDS011;36399;51.444;-2.018;2022-08-19T10:03:50;5.22;;;1.00;;
43435;SDS011;36399;51.444;-2.018;2022-08-19T10:06:18;7.00;;;1.00;;
43435;SDS011;36399;51.444;-2.018;2022-08-19T10:08:45;4.35;;;1.30;;
43435;SDS011;36399;51.444;-2.018;2022-08-19T10:11:12;3.15;;;0.98;;
43435;SDS011;36399;51.444;-2.018;2022-08-19T10:13:41;3.70;;;1.10;;
43435;SDS011;36399;51.444;-2.018;2022-08-19T10:16:11;2.38;;;0.80;;
43435;SDS011;36399;51.444;-2.018;2022-08-19T10:18:40;4.22;;;1.15;;
43435;SDS011;36399;51.444;-2.018;2022-08-19T10:21:22;4.95;;;1.38;;
43435;SDS011;36399;51.444;-2.018;2022-08-19T10:23:52;7.47;;;1.13;;
43435;SDS011;36399;51.444;-2.018;2022-08-19T10:26:21;3.92;;;1.42;;
43435;SDS011;36399;51.444;-2.018;2022-08-19T10:28:50;5.57;;;1.80;;
43435;SDS011;36399;51.444;-2.018;2022-08-19T10:31:37;4.68;;;1.30;;
43435;SDS011;36399;51.444;-2.018;2022-08-19T10:34:02;3.25;;;1.02;;
43435;SDS011;36399;51.444;-2.018;2022-08-19T10:36:33;6.80;;;1.45;;
43435;SDS011;36399;51.444;-2.018;2022-08-19T10:39:03;4.60;;;0.90;;
43435;SDS011;36399;51.444;-2.018;2022-08-19T10:41:32;4.70;;;1.42;;
43435;SDS011;36399;51.444;-2.018;2022-08-19T10:44:01;4.80;;;1.15;;
43435;SDS011;36399;51.444;-2.018;2022-08-19T10:46:30;6.82;;;1.45;;
43435;SDS011;36399;51.444;-2.018;2022-08-19T10:48:58;7.03;;;1.63;;
43435;SDS011;36399;51.444;-2.018;2022-08-19T10:51:25;4.43;;;1.58;;
43435;SDS011;36399;51.444;-2.018;2022-08-19T10:54:10;6.28;;;1.33;;
43435;SDS011;36399;51.444;-2.018;2022-08-19T10:56:36;5.72;;;1.10;;
43435;SDS011;36399;51.444;-2.018;2022-08-19T10:59:18;6.53;;;1.60;;
43435;SDS011;36399;51.444;-2.018;2022-08-19T11:01:47;4.78;;;1.50;;
43435;SDS011;36399;51.444;-2.018;2022-08-19T11:04:13;4.50;;;1.30;;
43435;SDS011;36399;51.444;-2.018;2022-08-19T11:06:46;4.57;;;1.20;;
43435;SDS011;36399;51.444;-2.018;2022-08-19T11:09:14;7.25;;;1.38;;
43435;SDS011;36399;51.444;-2.018;2022-08-19T11:11:41;4.45;;;1.10;;
43435;SDS011;36399;51.444;-2.018;2022-08-19T11:14:09;8.13;;;1.65;;
43435;SDS011;36399;51.444;-2.018;2022-08-19T11:16:40;7.53;;;1.45;;
43435;SDS011;36399;51.444;-2.018;2022-08-19T11:19:09;6.35;;;1.10;;
43435;SDS011;36399;51.444;-2.018;2022-08-19T11:21:37;6.03;;;1.50;;
43435;SDS011;36399;51.444;-2.018;2022-08-19T11:24:07;5.90;;;1.13;;
43435;SDS011;36399;51.444;-2.018;2022-08-19T11:26:40;7.70;;;1.50;;
43435;SDS011;36399;51.444;-2.018;2022-08-19T11:29:08;7.95;;;1.63;;
43435;SDS011;36399;51.444;-2.018;2022-08-19T11:31:39;7.07;;;2.05;;
43435;SDS011;36399;51.444;-2.018;2022-08-19T11:34:10;6.85;;;1.77;;
43435;SDS011;36399;51.444;-2.018;2022-08-19T11:36:40;7.50;;;2.35;;
43435;SDS011;36399;51.444;-2.018;2022-08-19T11:39:09;4.57;;;1.50;;
43435;SDS011;36399;51.444;-2.018;2022-08-19T11:41:36;9.48;;;1.27;;
43435;SDS011;36399;51.444;-2.018;2022-08-19T11:44:03;4.78;;;1.42;;
43435;SDS011;36399;51.444;-2.018;2022-08-19T11:46:30;7.03;;;1.40;;
43435;SDS011;36399;51.444;-2.018;2022-08-19T11:48:57;5.90;;;1.48;;
43435;SDS011;36399;51.444;-2.018;2022-08-19T11:51:26;4.10;;;1.13;;
43435;SDS011;36399;51.444;-2.018;2022-08-19T11:53:54;4.30;;;1.42;;
43435;SDS011;36399;51.444;-2.018;2022-08-19T11:56:21;5.88;;;1.23;;
43435;SDS011;36399;51.444;-2.018;2022-08-19T11:58:48;4.57;;;1.48;;
43435;SDS011;36399;51.444;-2.018;2022-08-19T12:01:16;5.03;;;1.27;;
43435;SDS011;36399;51.444;-2.018;2022-08-19T12:03:45;6.90;;;1.80;;
43435;SDS011;36399;51.444;-2.018;2022-08-19T12:06:13;4.07;;;1.08;;
43435;SDS011;36399;51.444;-2.018;2022-08-19T12:08:54;8.25;;;1.85;;
43435;SDS011;36399;51.444;-2.018;2022-08-19T12:11:22;7.68;;;1.58;;
43435;SDS011;36399;51.444;-2.018;2022-08-19T12:13:49;7.05;;;1.80;;
43435;SDS011;36399;51.444;-2.018;2022-08-19T12:16:20;5.50;;;1.73;;
43435;SDS011;36399;51.444;-2.018;2022-08-19T12:18:49;9.90;;;2.90;;
43435;SDS011;36399;51.444;-2.018;2022-08-19T12:21:18;6.75;;;1.50;;
43435;SDS011;36399;51.444;-2.018;2022-08-19T12:23:47;5.93;;;1.45;;
43435;SDS011;36399;51.444;-2.018;2022-08-19T12:26:15;4.97;;;1.40;;
43435;SDS011;36399;51.444;-2.018;2022-08-19T12:28:42;11.93;;;2.20;;
43435;SDS011;36399;51.444;-2.018;2022-08-19T12:31:08;4.35;;;1.33;;
43435;SDS011;36399;51.444;-2.018;2022-08-19T12:33:37;6.75;;;1.58;;
43435;SDS011;36399;51.444;-2.018;2022-08-19T12:36:05;7.05;;;1.73;;
43435;SDS011;36399;51.444;-2.018;2022-08-19T12:38:33;5.78;;;1.58;;
43435;SDS011;36399;51.444;-2.018;2022-08-19T12:41:00;4.38;;;1.50;;
43435;SDS011;36399;51.444;-2.018;2022-08-19T12:43:26;4.10;;;1.50;;
43435;SDS011;36399;51.444;-2.018;2022-08-19T12:45:52;5.57;;;1.65;;
43435;SDS011;36399;51.444;-2.018;2022-08-19T12:48:18;9.95;;;2.13;;
43435;SDS011;36399;51.444;-2.018;2022-08-19T12:50:45;7.18;;;1.73;;
43435;SDS011;36399;51.444;-2.018;2022-08-19T12:53:12;5.85;;;1.92;;
43435;SDS011;36399;51.444;-2.018;2022-08-19T12:55:38;5.13;;;1.92;;
43435;SDS011;36399;51.444;-2.018;2022-08-19T12:58:04;6.90;;;1.35;;
43435;SDS011;36399;51.444;-2.018;2022-08-19T13:00:30;7.78;;;1.60;;
43435;SDS011;36399;51.444;-2.018;2022-08-19T13:02:58;5.07;;;1.23;;
43435;SDS011;36399;51.444;-2.018;2022-08-19T13:05:26;7.00;;;1.45;;
43435;SDS011;36399;51.444;-2.018;2022-08-19T13:07:56;5.88;;;1.63;;
43435;SDS011;36399;51.444;-2.018;2022-08-19T13:10:24;3.95;;;1.08;;
43435;SDS011;36399;51.444;-2.018;2022-08-19T13:12:53;3.40;;;1.17;;
43435;SDS011;36399;51.444;-2.018;2022-08-19T13:15:20;4.38;;;1.20;;
43435;SDS011;36399;51.444;-2.018;2022-08-19T13:17:49;5.60;;;1.48;;
43435;SDS011;36399;51.444;-2.018;2022-08-19T13:20:17;5.60;;;1.48;;
43435;SDS011;36399;51.444;-2.018;2022-08-19T13:22:45;2.95;;;0.80;;
43435;SDS011;36399;51.444;-2.018;2022-08-19T13:25:14;6.70;;;1.95;;
43435;SDS011;36399;51.444;-2.018;2022-08-19T13:27:43;5.18;;;1.33;;
43435;SDS011;36399;51.444;-2.018;2022-08-19T13:30:10;6.38;;;1.48;;
43435;SDS011;36399;51.444;-2.018;2022-08-19T13:32:56;6.20;;;1.25;;
43435;SDS011;36399;51.444;-2.018;2022-08-19T13:35:47;5.60;;;1.88;;
43435;SDS011;36399;51.444;-2.018;2022-08-19T13:38:22;6.10;;;1.48;;
43435;SDS011;36399;51.444;-2.018;2022-08-19T13:40:49;3.90;;;1.23;;
43435;SDS011;36399;51.444;-2.018;2022-08-19T13:43:18;4.40;;;0.98;;
43435;SDS011;36399;51.444;-2.018;2022-08-19T13:45:46;5.00;;;1.35;;
43435;SDS011;36399;51.444;-2.018;2022-08-19T13:48:12;4.22;;;1.00;;
43435;SDS011;36399;51.444;-2.018;2022-08-19T13:50:39;6.55;;;1.88;;
43435;SDS011;36399;51.444;-2.018;2022-08-19T13:53:08;6.95;;;1.55;;
43435;SDS011;36399;51.444;-2.018;2022-08-19T13:55:40;6.57;;;1.38;;
43435;SDS011;36399;51.444;-2.018;2022-08-19T13:58:07;8.70;;;1.80;;
43435;SDS011;36399;51.444;-2.018;2022-08-19T14:00:36;5.97;;;1.27;;
43435;SDS011;36399;51.444;-2.018;2022-08-19T14:03:05;5.20;;;1.27;;
43435;SDS011;36399;51.444;-2.018;2022-08-19T14:05:31;3.00;;;0.90;;
43435;SDS011;36399;51.444;-2.018;2022-08-19T14:07:58;4.47;;;1.33;;
43435;SDS011;36399;51.444;-2.018;2022-08-19T14:10:25;8.00;;;1.67;;
43435;SDS011;36399;51.444;-2.018;2022-08-19T14:12:55;5.55;;;0.95;;
43435;SDS011;36399;51.444;-2.018;2022-08-19T14:15:23;4.45;;;1.02;;
43435;SDS011;36399;51.444;-2.018;2022-08-19T14:17:50;5.68;;;1.55;;
43435;SDS011;36399;51.444;-2.018;2022-08-19T14:20:16;5.60;;;1.33;;
43435;SDS011;36399;51.444;-2.018;2022-08-19T14:22:44;7.90;;;1.50;;
43435;SDS011;36399;51.444;-2.018;2022-08-19T14:25:13;5.53;;;1.52;;
43435;SDS011;36399;51.444;-2.018;2022-08-19T14:27:41;3.95;;;1.45;;
43435;SDS011;36399;51.444;-2.018;2022-08-19T14:30:09;5.85;;;1.25;;
43435;SDS011;36399;51.444;-2.018;2022-08-19T14:32:36;5.85;;;1.40;;
43435;SDS011;36399;51.444;-2.018;2022-08-19T14:35:03;5.47;;;1.00;;
43435;SDS011;36399;51.444;-2.018;2022-08-19T14:37:30;7.93;;;1.80;;
43435;SDS011;36399;51.444;-2.018;2022-08-19T14:39:56;4.97;;;1.13;;
43435;SDS011;36399;51.444;-2.018;2022-08-19T14:42:22;9.80;;;1.27;;
43435;SDS011;36399;51.444;-2.018;2022-08-19T14:44:48;6.40;;;1.80;;
43435;SDS011;36399;51.444;-2.018;2022-08-19T14:47:14;4.28;;;1.50;;
43435;SDS011;36399;51.444;-2.018;2022-08-19T14:49:40;4.43;;;0.88;;
43435;SDS011;36399;51.444;-2.018;2022-08-19T14:52:06;5.90;;;1.33;;